createdAt,value
2024-02-11T00:02:02.096Z,97610.19
2024-02-11T00:04:36.277Z,97604.09
2024-02-11T00:07:10.058Z,97599.31
2024-02-11T00:09:39.348Z,97603.75
2024-02-11T00:12:11.044Z,97599.38
2024-02-11T00:14:39.645Z,97602.88
2024-02-11T00:17:11.162Z,97592.09
2024-02-11T00:19:42.233Z,97594.34
2024-02-11T00:22:15.092Z,97595.91
2024-02-11T00:24:43.729Z,97593.37
2024-02-11T00:27:15.184Z,97584.22
2024-02-11T00:29:43.764Z,97594.72
2024-02-11T00:32:13.641Z,97589.62
2024-02-11T00:34:43.897Z,97583.84
2024-02-11T00:37:16.746Z,97577.06
2024-02-11T00:39:45.403Z,97587.81
2024-02-11T00:42:21.492Z,97577.91
2024-02-11T00:44:50.185Z,97578.09
2024-02-11T00:47:24.303Z,97571.69
2024-02-11T00:52:29.622Z,97566.47
2024-02-11T00:55:02.466Z,97570.53
2024-02-11T00:57:31.871Z,97565.06
2024-02-11T01:00:01.628Z,97559.94
2024-02-11T01:02:31.202Z,97558.22
2024-02-11T01:05:06.469Z,97548.34
2024-02-11T01:07:35.187Z,97545.84
2024-02-11T01:10:11.793Z,97548.03
2024-02-11T01:12:41.671Z,97549.00
2024-02-11T01:15:17.862Z,97542.22
2024-02-11T01:17:48.120Z,97544.00
2024-02-11T01:20:19.229Z,97546.47
2024-02-11T01:22:50.298Z,97538.28
2024-02-11T01:25:21.561Z,97544.59
2024-02-11T01:27:54.101Z,97542.56
2024-02-11T01:30:24.772Z,97539.41
2024-02-11T01:32:59.011Z,97536.12
2024-02-11T01:35:38.411Z,97533.88
2024-02-11T01:38:07.613Z,97527.84
2024-02-11T01:40:37.575Z,97528.75
2024-02-11T01:43:09.209Z,97525.41
2024-02-11T01:45:38.574Z,97513.09
2024-02-11T01:48:07.651Z,97529.47
2024-02-11T01:50:40.423Z,97512.38
2024-02-11T01:53:10.572Z,97507.84
2024-02-11T01:55:42.889Z,97502.22
2024-02-11T01:58:11.903Z,97497.28
2024-02-11T02:00:43.786Z,97496.38
2024-02-11T02:03:12.743Z,97490.38
2024-02-11T02:05:43.818Z,97475.31
2024-02-11T02:08:15.359Z,97474.41
2024-02-11T02:10:46.597Z,97473.22
2024-02-11T02:13:15.999Z,97470.97
2024-02-11T02:15:47.142Z,97466.78
2024-02-11T02:18:16.129Z,97462.69
2024-02-11T02:20:51.592Z,97463.81
2024-02-11T02:23:21.918Z,97471.13
2024-02-11T02:25:50.977Z,97455.03
2024-02-11T02:28:21.681Z,97454.06
2024-02-11T02:30:54.016Z,97450.16
2024-02-11T02:33:22.712Z,97447.00
2024-02-11T02:35:53.244Z,97451.25
2024-02-11T02:38:23.370Z,97442.88
2024-02-11T02:40:55.895Z,97443.72
2024-02-11T02:43:26.454Z,97441.13
2024-02-11T02:45:56.775Z,97437.25
2024-02-11T02:48:25.880Z,97439.69
2024-02-11T02:51:01.986Z,97439.91
2024-02-11T02:53:39.399Z,97427.53
2024-02-11T02:56:08.682Z,97429.84
2024-02-11T02:58:42.740Z,97417.03
2024-02-11T03:01:13.378Z,97412.31
2024-02-11T03:03:42.450Z,97413.03
2024-02-11T03:06:11.274Z,97422.16
2024-02-11T03:08:48.941Z,97421.91
2024-02-11T03:11:17.867Z,97420.44
2024-02-11T03:13:53.082Z,97417.56
2024-02-11T03:16:22.317Z,97409.03
2024-02-11T03:18:52.272Z,97413.53
2024-02-11T03:21:24.169Z,97412.13
2024-02-11T03:23:58.044Z,97403.91
2024-02-11T03:26:27.605Z,97400.66
2024-02-11T03:28:58.193Z,97402.50
2024-02-11T03:31:32.246Z,97395.53
2024-02-11T03:34:02.325Z,97400.66
2024-02-11T03:36:33.031Z,97408.28
2024-02-11T03:39:05.744Z,97403.91
2024-02-11T03:41:36.787Z,97404.09
2024-02-11T03:44:06.430Z,97399.28
2024-02-11T03:46:36.120Z,97387.37
2024-02-11T03:49:05.405Z,97392.06
2024-02-11T03:51:36.176Z,97388.50
2024-02-11T03:54:06.597Z,97382.53
2024-02-11T03:56:36.559Z,97372.16
2024-02-11T03:59:05.944Z,97379.25
2024-02-11T04:01:38.959Z,97367.84
2024-02-11T04:04:07.962Z,97365.34
2024-02-11T04:06:38.961Z,97358.84
2024-02-11T04:09:11.018Z,97354.91
2024-02-11T04:11:40.214Z,97351.97
2024-02-11T04:14:10.735Z,97351.41
2024-02-11T04:16:45.111Z,97348.00
2024-02-11T04:19:14.054Z,97334.53
2024-02-11T04:21:45.605Z,97333.03
2024-02-11T04:24:17.235Z,97329.44
2024-02-11T04:26:48.419Z,97332.69
2024-02-11T04:29:17.086Z,97331.66
2024-02-11T04:31:52.533Z,97332.94
2024-02-11T04:34:30.383Z,97330.19
2024-02-11T04:36:59.353Z,97330.91
2024-02-11T04:39:32.820Z,97338.28
2024-02-11T04:42:01.907Z,97340.28
2024-02-11T04:44:36.647Z,97340.78
2024-02-11T04:47:05.621Z,97346.53
2024-02-11T04:49:37.059Z,97356.75
2024-02-11T04:52:08.693Z,97348.59
2024-02-11T04:54:44.385Z,97351.69
2024-02-11T04:57:19.918Z,97354.50
2024-02-11T04:59:49.186Z,97354.00
2024-02-11T05:02:20.615Z,97359.84
2024-02-11T05:04:51.690Z,97357.75
2024-02-11T05:07:23.721Z,97362.34
2024-02-11T05:09:54.038Z,97365.72
2024-02-11T05:12:23.184Z,97362.34
2024-02-11T05:14:52.433Z,97352.38
2024-02-11T05:17:23.209Z,97351.50
2024-02-11T05:19:54.787Z,97352.53
2024-02-11T05:22:27.313Z,97353.72
2024-02-11T05:24:58.908Z,97349.16
2024-02-11T05:27:28.760Z,97355.78
2024-02-11T05:29:58.100Z,97355.91
2024-02-11T05:32:29.876Z,97360.34
2024-02-11T05:34:59.927Z,97350.66
2024-02-11T05:37:30.243Z,97348.37
2024-02-11T05:40:00.540Z,97356.75
2024-02-11T05:42:33.682Z,97355.47
2024-02-11T05:45:02.600Z,97356.81
2024-02-11T05:47:34.457Z,97347.25
2024-02-11T05:50:06.545Z,97354.97
2024-02-11T05:52:37.333Z,97348.16
2024-02-11T05:55:13.315Z,97357.56
2024-02-11T05:57:42.634Z,97350.00
2024-02-11T06:00:19.877Z,97358.56
2024-02-11T06:02:54.452Z,97349.03
2024-02-11T06:05:30.878Z,97353.63
2024-02-11T06:08:05.067Z,97359.59
2024-02-11T06:10:35.547Z,97354.28
2024-02-11T06:13:10.612Z,97357.72
2024-02-11T06:15:46.020Z,97356.56
2024-02-11T06:18:15.372Z,97354.69
2024-02-11T06:20:47.636Z,97349.59
2024-02-11T06:23:18.189Z,97357.53
2024-02-11T06:25:58.448Z,97360.91
2024-02-11T06:28:29.223Z,97347.38
2024-02-11T06:30:57.653Z,97356.87
2024-02-11T06:33:28.138Z,97354.44
2024-02-11T06:35:58.952Z,97354.03
2024-02-11T06:38:32.553Z,97354.88
2024-02-11T06:41:02.590Z,97355.16
2024-02-11T06:43:36.072Z,97358.56
2024-02-11T06:46:05.663Z,97355.19
2024-02-11T06:48:38.049Z,97359.22
2024-02-11T06:51:08.458Z,97362.34
2024-02-11T06:53:38.009Z,97363.75
2024-02-11T06:56:09.192Z,97370.00
2024-02-11T06:58:42.726Z,97361.34
2024-02-11T07:01:15.221Z,97363.34
2024-02-11T07:03:53.029Z,97361.47
2024-02-11T07:06:24.596Z,97369.69
2024-02-11T07:08:53.628Z,97372.31
2024-02-11T07:11:24.547Z,97380.09
2024-02-11T07:13:54.485Z,97382.94
2024-02-11T07:16:29.353Z,97378.75
2024-02-11T07:18:58.923Z,97382.22
2024-02-11T07:21:38.041Z,97373.38
2024-02-11T07:24:10.272Z,97366.28
2024-02-11T07:26:40.637Z,97372.37
2024-02-11T07:29:11.297Z,97373.81
2024-02-11T07:31:41.361Z,97375.75
2024-02-11T07:34:15.580Z,97370.38
2024-02-11T07:36:45.781Z,97376.47
2024-02-11T07:39:24.154Z,97377.63
2024-02-11T07:41:59.574Z,97376.66
2024-02-11T07:44:29.742Z,97371.94
2024-02-11T07:47:07.503Z,97373.56
2024-02-11T07:49:39.964Z,97371.72
2024-02-11T07:52:08.807Z,97375.59
2024-02-11T07:54:40.882Z,97387.06
2024-02-11T07:57:11.812Z,97379.69
2024-02-11T07:59:40.774Z,97375.84
2024-02-11T08:02:10.137Z,97373.84
2024-02-11T08:04:39.297Z,97373.09
2024-02-11T08:07:07.195Z,97369.47
2024-02-11T08:09:37.054Z,97368.00
2024-02-11T08:12:15.607Z,97371.19
2024-02-11T08:14:45.022Z,97371.47
2024-02-11T08:17:16.770Z,97370.28
2024-02-11T08:19:49.129Z,97378.34
2024-02-11T08:22:20.697Z,97375.16
2024-02-11T08:24:49.383Z,97372.03
2024-02-11T08:27:19.641Z,97379.06
2024-02-11T08:29:53.775Z,97371.97
2024-02-11T08:32:22.801Z,97365.25
2024-02-11T08:34:54.761Z,97376.66
2024-02-11T08:37:24.028Z,97371.66
2024-02-11T08:39:52.699Z,97351.44
2024-02-11T08:42:22.976Z,97363.16
2024-02-11T08:44:54.331Z,97370.56
2024-02-11T08:47:23.171Z,97361.84
2024-02-11T08:49:58.862Z,97365.38
2024-02-11T08:52:28.146Z,97360.91
2024-02-11T08:54:58.086Z,97363.09
2024-02-11T08:57:28.645Z,97370.16
2024-02-11T09:00:01.183Z,97373.31
2024-02-11T09:02:32.252Z,97362.59
2024-02-11T09:05:05.659Z,97377.00
2024-02-11T09:07:36.264Z,97374.22
2024-02-11T09:10:15.301Z,97380.53
2024-02-11T09:12:46.075Z,97386.06
2024-02-11T09:15:18.089Z,97382.28
2024-02-11T09:17:55.453Z,97389.81
2024-02-11T09:20:32.341Z,97389.72
2024-02-11T09:23:01.182Z,97382.94
2024-02-11T09:25:44.144Z,97400.97
2024-02-11T09:28:15.012Z,97400.38
2024-02-11T09:30:43.980Z,97401.37
2024-02-11T09:33:12.477Z,97402.59
2024-02-11T09:35:41.175Z,97401.91
2024-02-11T09:38:16.602Z,97398.62
2024-02-11T09:40:45.826Z,97398.66
2024-02-11T09:43:17.998Z,97404.00
2024-02-11T09:45:47.041Z,97411.97
2024-02-11T09:48:16.984Z,97415.59
2024-02-11T09:50:45.829Z,97420.41
2024-02-11T09:53:19.107Z,97425.47
2024-02-11T09:55:48.372Z,97426.72
2024-02-11T09:58:25.951Z,97425.97
2024-02-11T10:01:00.778Z,97428.22
2024-02-11T10:03:29.916Z,97418.09
2024-02-11T10:06:11.366Z,97420.84
2024-02-11T10:08:47.270Z,97416.66
2024-02-11T10:11:18.976Z,97419.28
2024-02-11T10:14:00.956Z,97417.94
2024-02-11T10:16:30.100Z,97409.22
2024-02-11T10:19:00.542Z,97415.69
2024-02-11T10:21:31.371Z,97411.47
2024-02-11T10:24:00.983Z,97402.84
2024-02-11T10:26:33.590Z,97395.28
2024-02-11T10:29:06.778Z,97397.22
2024-02-11T10:31:41.424Z,97397.94
2024-02-11T10:34:15.895Z,97404.38
2024-02-11T10:36:48.413Z,97399.56
2024-02-11T10:39:17.673Z,97401.00
2024-02-11T10:41:46.015Z,97399.06
2024-02-11T10:44:23.714Z,97400.47
2024-02-11T10:46:58.078Z,97397.31
2024-02-11T10:49:27.912Z,97392.59
2024-02-11T10:52:01.509Z,97402.25
2024-02-11T10:54:31.139Z,97391.69
2024-02-11T10:57:03.001Z,97393.63
2024-02-11T10:59:36.279Z,97394.47
2024-02-11T11:02:07.339Z,97397.22
2024-02-11T11:04:38.291Z,97382.53
2024-02-11T11:07:13.759Z,97389.50
2024-02-11T11:09:42.704Z,97387.78
2024-02-11T11:12:19.443Z,97379.78
2024-02-11T11:14:57.406Z,97379.50
2024-02-11T11:17:35.280Z,97386.63
2024-02-11T11:20:14.308Z,97375.12
2024-02-11T11:22:43.341Z,97374.69
2024-02-11T11:25:18.275Z,97383.84
2024-02-11T11:27:47.749Z,97385.94
2024-02-11T11:30:21.228Z,97380.56
2024-02-11T11:32:54.777Z,97380.53
2024-02-11T11:35:29.223Z,97376.34
2024-02-11T11:38:02.111Z,97379.97
2024-02-11T11:40:31.650Z,97376.06
2024-02-11T11:43:13.580Z,97362.19
2024-02-11T11:45:52.970Z,97366.31
2024-02-11T11:48:24.455Z,97369.72
2024-02-11T11:50:57.657Z,97371.84
2024-02-11T11:53:31.116Z,97378.63
2024-02-11T11:56:02.908Z,97377.81
2024-02-11T11:58:36.508Z,97383.97
2024-02-11T12:01:08.358Z,97363.13
2024-02-11T12:03:42.705Z,97372.03
2024-02-11T12:06:24.522Z,97365.19
2024-02-11T12:08:58.012Z,97360.53
2024-02-11T12:11:26.851Z,97368.44
2024-02-11T12:13:56.023Z,97366.47
2024-02-11T12:16:28.009Z,97358.41
2024-02-11T12:18:59.969Z,97360.81
2024-02-11T12:21:28.441Z,97356.16
2024-02-11T12:24:02.023Z,97365.53
2024-02-11T12:26:31.043Z,97358.19
2024-02-11T12:29:01.470Z,97365.03
2024-02-11T12:31:31.311Z,97362.63
2024-02-11T12:34:03.266Z,97362.13
2024-02-11T12:36:32.341Z,97360.47
2024-02-11T12:39:04.647Z,97356.22
2024-02-11T12:41:34.185Z,97358.19
2024-02-11T12:44:09.058Z,97356.87
2024-02-11T12:46:38.930Z,97351.00
2024-02-11T12:49:09.791Z,97349.22
2024-02-11T12:51:38.530Z,97353.72
2024-02-11T12:54:08.759Z,97352.22
2024-02-11T12:56:40.987Z,97350.31
2024-02-11T12:59:12.861Z,97341.87
2024-02-11T13:01:58.530Z,97348.50
2024-02-11T13:04:34.764Z,97347.66
2024-02-11T13:07:03.749Z,97351.22
2024-02-11T13:09:38.843Z,97341.00
2024-02-11T13:12:07.822Z,97349.03
2024-02-11T13:14:37.583Z,97351.75
2024-02-11T13:17:08.432Z,97352.03
2024-02-11T13:19:39.664Z,97350.91
2024-02-11T13:22:14.381Z,97349.69
2024-02-11T13:24:50.693Z,97354.78
2024-02-11T13:27:22.252Z,97362.81
2024-02-11T13:29:51.212Z,97356.66
2024-02-11T13:32:30.960Z,97367.06
2024-02-11T13:35:01.600Z,97360.47
2024-02-11T13:37:32.403Z,97364.87
2024-02-11T13:40:12.295Z,97368.97
2024-02-11T13:42:42.697Z,97369.91
2024-02-11T13:45:19.318Z,97375.97
2024-02-11T13:47:49.835Z,97373.88
2024-02-11T13:50:19.537Z,97383.09
2024-02-11T13:52:52.122Z,97384.13
2024-02-11T13:55:22.114Z,97394.06
2024-02-11T13:57:55.309Z,97386.09
2024-02-11T14:00:25.453Z,97398.75
2024-02-11T14:02:59.869Z,97398.22
2024-02-11T14:05:29.294Z,97393.09
2024-02-11T14:08:05.087Z,97397.19
2024-02-11T14:10:41.554Z,97403.78
2024-02-11T14:13:10.451Z,97393.22
2024-02-11T14:15:45.036Z,97406.59
2024-02-11T14:18:21.382Z,97404.28
2024-02-11T14:20:53.900Z,97400.53
2024-02-11T14:23:27.253Z,97396.75
2024-02-11T14:25:56.052Z,97403.66
2024-02-11T14:28:25.399Z,97406.28
2024-02-11T14:30:54.644Z,97404.72
2024-02-11T14:33:27.305Z,97405.75
2024-02-11T14:35:59.298Z,97408.97
2024-02-11T14:38:30.724Z,97416.94
2024-02-11T14:41:01.135Z,97415.69
2024-02-11T14:43:30.418Z,97414.53
2024-02-11T14:45:59.747Z,97410.66
2024-02-11T14:48:33.580Z,97424.34
2024-02-11T14:51:03.465Z,97421.62
2024-02-11T14:53:33.938Z,97430.50
2024-02-11T14:56:02.917Z,97429.78
2024-02-11T14:58:35.328Z,97437.69
2024-02-11T15:01:07.811Z,97435.81
2024-02-11T15:03:47.881Z,97428.31
2024-02-11T15:06:18.374Z,97432.91
2024-02-11T15:08:48.282Z,97429.03
2024-02-11T15:11:19.689Z,97430.31
2024-02-11T15:13:51.339Z,97432.16
2024-02-11T15:16:21.889Z,97435.19
2024-02-11T15:18:51.930Z,97435.62
2024-02-11T15:21:24.829Z,97435.41
2024-02-11T15:23:55.225Z,97444.62
2024-02-11T15:26:25.449Z,97452.97
2024-02-11T15:28:54.238Z,97452.00
2024-02-11T15:31:26.395Z,97449.81
2024-02-11T15:33:56.896Z,97451.34
2024-02-11T15:36:25.989Z,97455.59
2024-02-11T15:38:54.644Z,97458.50
2024-02-11T15:41:23.724Z,97460.75
2024-02-11T15:43:55.222Z,97463.56
2024-02-11T15:46:30.613Z,97471.91
2024-02-11T15:49:01.013Z,97479.38
2024-02-11T15:51:32.410Z,97476.41
2024-02-11T15:54:01.361Z,97477.44
2024-02-11T15:56:31.685Z,97481.16
2024-02-11T15:59:01.484Z,97481.59
2024-02-11T16:01:37.580Z,97487.97
2024-02-11T16:04:15.254Z,97485.34
2024-02-11T16:06:44.043Z,97490.75
2024-02-11T16:09:16.863Z,97492.66
2024-02-11T16:11:46.162Z,97495.28
2024-02-11T16:14:24.851Z,97496.38
2024-02-11T16:17:02.920Z,97492.22
2024-02-11T16:22:15.873Z,97497.09
2024-02-11T16:24:46.424Z,97510.06
2024-02-11T16:27:15.122Z,97512.38
2024-02-11T16:29:44.634Z,97507.59
2024-02-11T16:32:13.366Z,97515.63
2024-02-11T16:34:46.226Z,97522.97
2024-02-11T16:37:16.906Z,97523.47
2024-02-11T16:39:48.749Z,97519.94
2024-02-11T16:42:18.676Z,97527.19
2024-02-11T16:44:50.613Z,97529.09
2024-02-11T16:47:22.761Z,97536.97
2024-02-11T16:49:56.343Z,97537.81
2024-02-11T16:52:25.450Z,97541.94
2024-02-11T16:54:54.092Z,97547.97
2024-02-11T16:57:22.457Z,97556.19
2024-02-11T16:59:55.620Z,97550.88
2024-02-11T17:02:24.329Z,97555.59
2024-02-11T17:04:55.170Z,97562.50
2024-02-11T17:07:26.109Z,97565.47
2024-02-11T17:09:56.335Z,97567.19
2024-02-11T17:12:24.699Z,97564.84
2024-02-11T17:14:59.003Z,97562.78
2024-02-11T17:17:27.793Z,97571.38
2024-02-11T17:20:00.209Z,97565.59
2024-02-11T17:22:30.485Z,97572.00
2024-02-11T17:25:00.443Z,97570.59
2024-02-11T17:27:29.148Z,97577.78
2024-02-11T17:30:08.282Z,97575.00
2024-02-11T17:32:45.068Z,97578.91
2024-02-11T17:35:18.333Z,97580.56
2024-02-11T17:37:56.445Z,97582.34
2024-02-11T17:40:28.392Z,97588.31
2024-02-11T17:42:57.044Z,97584.00
2024-02-11T17:45:29.212Z,97589.41
2024-02-11T17:47:59.171Z,97597.78
2024-02-11T17:50:31.510Z,97595.09
2024-02-11T17:53:01.972Z,97590.63
2024-02-11T17:55:34.616Z,97594.81
2024-02-11T17:58:03.923Z,97600.69
2024-02-11T18:00:45.943Z,97606.75
2024-02-11T18:03:27.864Z,97608.88
2024-02-11T18:06:01.969Z,97611.84
2024-02-11T18:08:32.056Z,97615.41
2024-02-11T18:11:00.748Z,97619.66
2024-02-11T18:13:29.720Z,97627.75
2024-02-11T18:16:02.419Z,97631.78
2024-02-11T18:18:34.604Z,97633.44
2024-02-11T18:21:11.226Z,97637.09
2024-02-11T18:23:48.666Z,97638.37
2024-02-11T18:26:19.517Z,97645.84
2024-02-11T18:28:48.796Z,97647.22
2024-02-11T18:31:18.430Z,97651.75
2024-02-11T18:33:47.645Z,97685.59
2024-02-11T18:36:16.082Z,97693.94
2024-02-11T18:38:48.993Z,97693.91
2024-02-11T18:41:18.212Z,97695.97
2024-02-11T18:43:51.690Z,97694.38
2024-02-11T18:46:22.022Z,97696.34
2024-02-11T18:48:53.270Z,97696.53
2024-02-11T18:51:21.703Z,97689.16
2024-02-11T18:53:55.157Z,97697.00
2024-02-11T18:56:24.000Z,97706.50
2024-02-11T18:59:00.407Z,97711.62
2024-02-11T19:01:29.593Z,97711.94
2024-02-11T19:03:58.437Z,97708.25
2024-02-11T19:06:28.654Z,97710.41
2024-02-11T19:08:59.904Z,97719.03
2024-02-11T19:11:29.081Z,97714.87
2024-02-11T19:14:02.138Z,97721.03
2024-02-11T19:16:30.856Z,97717.66
2024-02-11T19:19:00.276Z,97724.13
2024-02-11T19:21:31.671Z,97729.13
2024-02-11T19:24:07.250Z,97721.03
2024-02-11T19:26:38.626Z,97731.13
2024-02-11T19:29:14.940Z,97721.72
2024-02-11T19:31:47.891Z,97735.34
2024-02-11T19:34:39.824Z,97720.16
2024-02-11T19:37:11.488Z,97736.16
2024-02-11T19:39:41.897Z,97735.22
2024-02-11T19:42:14.786Z,97733.47
2024-02-11T19:44:43.966Z,97736.69
2024-02-11T19:47:13.162Z,97742.72
2024-02-11T19:49:42.009Z,97741.41
2024-02-11T19:52:11.478Z,97740.50
2024-02-11T19:54:43.375Z,97747.97
2024-02-11T19:57:17.113Z,97756.69
2024-02-11T19:59:46.267Z,97750.56
2024-02-11T20:02:18.601Z,97755.59
2024-02-11T20:04:48.147Z,97759.97
2024-02-11T20:07:18.765Z,97753.28
2024-02-11T20:09:49.244Z,97754.63
2024-02-11T20:12:22.070Z,97759.97
2024-02-11T20:14:52.455Z,97767.00
2024-02-11T20:17:22.577Z,97767.41
2024-02-11T20:19:53.068Z,97765.25
2024-02-11T20:22:22.406Z,97769.91
2024-02-11T20:24:53.014Z,97773.03
2024-02-11T20:27:25.739Z,97777.00
2024-02-11T20:29:55.180Z,97776.16
2024-02-11T20:32:29.545Z,97784.09
2024-02-11T20:34:59.216Z,97778.25
2024-02-11T20:37:41.943Z,97782.72
2024-02-11T20:40:17.153Z,97776.75
2024-02-11T20:42:54.180Z,97781.06
2024-02-11T20:45:24.271Z,97781.59
2024-02-11T20:47:55.950Z,97782.22
2024-02-11T20:50:25.600Z,97784.03
2024-02-11T20:52:54.504Z,97786.34
2024-02-11T20:55:27.896Z,97779.97
2024-02-11T20:57:58.631Z,97791.13
2024-02-11T21:00:28.280Z,97782.22
2024-02-11T21:02:59.001Z,97780.97
2024-02-11T21:05:28.764Z,97780.97
2024-02-11T21:08:01.239Z,97788.34
2024-02-11T21:10:33.496Z,97777.16
2024-02-11T21:13:25.382Z,97778.94
2024-02-11T21:15:54.125Z,97779.69
2024-02-11T21:18:27.116Z,97780.53
2024-02-11T21:20:56.597Z,97783.25
2024-02-11T21:23:26.236Z,97779.34
2024-02-11T21:25:56.408Z,97785.53
2024-02-11T21:28:30.721Z,97768.91
2024-02-11T21:31:20.025Z,97769.66
2024-02-11T21:33:51.872Z,97778.47
2024-02-11T21:36:20.372Z,97781.84
2024-02-11T21:38:52.365Z,97776.00
2024-02-11T21:41:22.420Z,97778.16
2024-02-11T21:43:54.645Z,97782.94
2024-02-11T21:46:26.509Z,97793.91
2024-02-11T21:49:03.843Z,97794.38
2024-02-11T21:51:37.864Z,97794.75
2024-02-11T21:54:07.257Z,97791.53
2024-02-11T21:56:39.991Z,97796.34
2024-02-11T21:59:09.159Z,97797.13
2024-02-11T22:01:38.416Z,97797.00
2024-02-11T22:04:09.907Z,97799.59
2024-02-11T22:06:45.188Z,97805.31
2024-02-11T22:09:15.028Z,97810.50
2024-02-11T22:11:46.570Z,97810.44
2024-02-11T22:14:15.941Z,97813.75
2024-02-11T22:16:45.447Z,97813.87
2024-02-11T22:19:13.886Z,97830.28
2024-02-11T22:21:49.110Z,97830.22
2024-02-11T22:24:18.602Z,97824.19
2024-02-11T22:26:51.147Z,97835.50
2024-02-11T22:29:19.554Z,97834.06
2024-02-11T22:31:52.022Z,97842.66
2024-02-11T22:34:21.413Z,97837.44
2024-02-11T22:36:51.430Z,97843.97
2024-02-11T22:39:22.498Z,97848.88
2024-02-11T22:41:53.378Z,97856.41
2024-02-11T22:44:22.146Z,97858.09
2024-02-11T22:46:54.257Z,97862.94
2024-02-11T22:49:23.095Z,97866.59
2024-02-11T22:51:56.027Z,97873.00
2024-02-11T22:54:26.164Z,97867.41
2024-02-11T22:57:00.446Z,97874.69
2024-02-11T22:59:30.147Z,97875.91
2024-02-11T23:02:01.277Z,97885.13
2024-02-11T23:04:30.277Z,97885.94
2024-02-11T23:07:01.546Z,97890.09
2024-02-11T23:09:31.091Z,97891.00
2024-02-11T23:12:04.032Z,97894.88
2024-02-11T23:14:33.313Z,97901.31
2024-02-11T23:17:05.639Z,97901.91
2024-02-11T23:19:54.234Z,97908.12
2024-02-11T23:22:26.841Z,97902.22
2024-02-11T23:24:55.506Z,97905.06
2024-02-11T23:27:28.718Z,97913.13
2024-02-11T23:29:57.416Z,97912.81
2024-02-11T23:32:26.730Z,97907.72
2024-02-11T23:34:59.125Z,97912.72
2024-02-11T23:37:36.610Z,97915.88
2024-02-11T23:40:08.455Z,97914.84
2024-02-11T23:42:41.053Z,97926.19
2024-02-11T23:45:14.174Z,97921.94
2024-02-11T23:47:43.286Z,97924.47
2024-02-11T23:50:20.365Z,97922.22
2024-02-11T23:52:49.602Z,97928.37
2024-02-11T23:55:18.646Z,97925.22
2024-02-11T23:57:49.075Z,97925.66
